createdAt,value
2022-10-17T00:20:13.523Z,96195.47
2022-10-17T00:22:43.609Z,96195.72
2022-10-17T00:25:13.553Z,96206.47
2022-10-17T00:27:43.996Z,96197.59
2022-10-17T00:30:17.205Z,96204.53
2022-10-17T00:32:46.538Z,96196.94
2022-10-17T00:35:17.593Z,96197.19
2022-10-17T00:37:48.607Z,96197.16
2022-10-17T00:40:18.397Z,96198.22
2022-10-17T00:42:51.229Z,96201.72
2022-10-17T00:45:27.244Z,96202.19
2022-10-17T00:48:02.360Z,96204.31
2022-10-17T00:50:34.594Z,96208.31
2022-10-17T00:53:07.549Z,96201.56
2022-10-17T00:55:43.876Z,96209.03
2022-10-17T00:58:13.611Z,96202.03
2022-10-17T01:00:45.662Z,96201.78
2022-10-17T01:03:15.265Z,96200.50
2022-10-17T01:05:46.362Z,96196.50
2022-10-17T01:08:16.004Z,96203.00
2022-10-17T01:10:59.794Z,96198.78
2022-10-17T01:13:40.049Z,96195.56
2022-10-17T01:16:17.522Z,96196.13
2022-10-17T01:19:03.034Z,96200.44
2022-10-17T01:21:46.816Z,96196.38
2022-10-17T01:24:53.328Z,96190.97
2022-10-17T01:28:02.357Z,96198.44
2022-10-17T01:31:04.426Z,96195.69
2022-10-17T01:33:48.120Z,96189.75
2022-10-17T01:36:36.968Z,96193.16
2022-10-17T01:39:18.469Z,96197.16
2022-10-17T01:41:54.428Z,96200.09
2022-10-17T01:44:33.429Z,96204.41
2022-10-17T01:47:10.094Z,96200.91
2022-10-17T01:49:42.865Z,96194.47
2022-10-17T01:52:18.251Z,96200.16
2022-10-17T01:54:52.522Z,96196.19
2022-10-17T01:57:31.022Z,96191.03
2022-10-17T02:00:01.788Z,96195.53
2022-10-17T02:02:34.002Z,96190.88
2022-10-17T02:05:06.866Z,96204.50
2022-10-17T02:07:36.276Z,96202.22
2022-10-17T02:10:11.590Z,96203.19
2022-10-17T02:12:55.653Z,96199.84
2022-10-17T02:16:03.884Z,96197.09
2022-10-17T02:19:25.064Z,96194.09
2022-10-17T02:22:11.950Z,96196.69
2022-10-17T02:24:53.941Z,96192.88
2022-10-17T02:27:41.297Z,96190.66
2022-10-17T02:30:17.976Z,96194.06
2022-10-17T02:32:58.034Z,96191.91
2022-10-17T02:35:35.452Z,96192.38
2022-10-17T02:38:07.919Z,96198.47
2022-10-17T02:40:40.597Z,96197.78
2022-10-17T02:43:10.291Z,96192.09
2022-10-17T02:45:41.582Z,96199.81
2022-10-17T02:48:17.714Z,96203.78
2022-10-17T02:51:00.023Z,96198.91
2022-10-17T02:53:39.247Z,96199.63
2022-10-17T02:56:19.455Z,96200.94
2022-10-17T02:58:55.230Z,96203.38
2022-10-17T03:01:25.435Z,96204.44
2022-10-17T03:04:08.515Z,96211.66
2022-10-17T03:06:39.440Z,96216.69
2022-10-17T03:09:09.862Z,96207.47
2022-10-17T03:11:39.144Z,96210.97
2022-10-17T03:14:10.221Z,96209.34
2022-10-17T03:16:39.464Z,96217.59
2022-10-17T03:19:08.814Z,96224.25
2022-10-17T03:21:40.013Z,96224.72
2022-10-17T03:24:10.162Z,96220.41
2022-10-17T03:26:39.742Z,96217.97
2022-10-17T03:29:10.435Z,96220.41
2022-10-17T03:31:41.466Z,96217.84
2022-10-17T03:34:12.195Z,96223.09
2022-10-17T03:36:42.976Z,96227.19
2022-10-17T03:39:12.589Z,96228.81
2022-10-17T03:41:42.057Z,96227.41
2022-10-17T03:44:11.914Z,96225.66
2022-10-17T03:46:41.426Z,96226.13
2022-10-17T03:49:11.241Z,96226.00
2022-10-17T03:51:43.707Z,96222.69
2022-10-17T03:54:16.554Z,96219.66
2022-10-17T03:56:46.610Z,96222.22
2022-10-17T03:59:19.965Z,96227.25
2022-10-17T04:01:58.556Z,96231.22
2022-10-17T04:04:28.238Z,96231.69
2022-10-17T04:06:59.037Z,96228.09
2022-10-17T04:09:28.548Z,96238.47
2022-10-17T04:12:06.540Z,96247.22
2022-10-17T04:14:38.729Z,96244.78
2022-10-17T04:17:08.141Z,96252.22
2022-10-17T04:19:38.428Z,96247.69
2022-10-17T04:22:09.493Z,96253.41
2022-10-17T04:24:41.532Z,96253.50
2022-10-17T04:27:13.026Z,96253.81
2022-10-17T04:29:46.035Z,96242.31
2022-10-17T04:32:19.796Z,96240.19
2022-10-17T04:34:58.097Z,96240.31
2022-10-17T04:37:31.217Z,96238.78
2022-10-17T04:40:02.383Z,96241.56
2022-10-17T04:42:34.730Z,96245.19
2022-10-17T04:45:04.790Z,96247.34
2022-10-17T04:47:34.473Z,96248.75
2022-10-17T04:50:05.105Z,96245.00
2022-10-17T04:52:38.095Z,96247.28
2022-10-17T04:55:09.221Z,96245.41
2022-10-17T04:57:38.813Z,96246.94
2022-10-17T05:00:16.670Z,96253.63
2022-10-17T05:02:58.646Z,96260.03
2022-10-17T05:05:29.566Z,96254.28
2022-10-17T05:08:00.956Z,96249.94
2022-10-17T05:10:38.361Z,96254.34
2022-10-17T05:13:08.593Z,96261.81
2022-10-17T05:15:39.535Z,96264.63
2022-10-17T05:18:09.199Z,96266.63
2022-10-17T05:20:39.723Z,96259.53
2022-10-17T05:23:10.895Z,96270.53
2022-10-17T05:25:44.294Z,96269.72
2022-10-17T05:28:14.264Z,96272.13
2022-10-17T05:30:45.310Z,96280.75
2022-10-17T05:33:14.877Z,96284.47
2022-10-17T05:35:44.448Z,96281.41
2022-10-17T05:38:15.312Z,96276.69
2022-10-17T05:40:46.899Z,96272.13
2022-10-17T05:43:16.757Z,96272.94
2022-10-17T05:45:47.627Z,96277.84
2022-10-17T05:48:22.663Z,96273.28
2022-10-17T05:51:00.759Z,96274.34
2022-10-17T05:53:34.555Z,96276.22
2022-10-17T05:56:10.780Z,96279.38
2022-10-17T05:58:52.540Z,96287.94
2022-10-17T06:01:40.350Z,96296.13
2022-10-17T06:04:10.135Z,96300.91
2022-10-17T06:06:41.401Z,96299.03
2022-10-17T06:09:13.851Z,96295.53
2022-10-17T06:11:46.820Z,96303.00
2022-10-17T06:14:16.540Z,96296.25
2022-10-17T06:16:45.915Z,96304.88
2022-10-17T06:19:15.410Z,96310.00
2022-10-17T06:21:44.826Z,96307.09
2022-10-17T06:24:23.275Z,96305.22
2022-10-17T06:26:54.670Z,96302.19
2022-10-17T06:29:24.752Z,96305.34
2022-10-17T06:31:55.104Z,96307.69
2022-10-17T06:34:24.765Z,96312.00
2022-10-17T06:36:54.750Z,96315.75
2022-10-17T06:39:26.976Z,96318.19
2022-10-17T06:42:08.110Z,96323.91
2022-10-17T06:45:07.489Z,96327.50
2022-10-17T06:47:44.569Z,96336.94
2022-10-17T06:50:30.099Z,96334.38
2022-10-17T06:53:08.773Z,96345.59
2022-10-17T06:55:55.369Z,96344.41
2022-10-17T06:58:43.450Z,96356.72
2022-10-17T07:01:47.962Z,96356.09
2022-10-17T07:04:18.662Z,96361.63
2022-10-17T07:06:48.096Z,96359.81
2022-10-17T07:09:20.400Z,96361.31
2022-10-17T07:11:51.494Z,96366.28
2022-10-17T07:14:21.452Z,96368.00
2022-10-17T07:16:51.199Z,96371.88
2022-10-17T07:19:26.943Z,96373.81
2022-10-17T07:21:56.541Z,96370.91
2022-10-17T07:24:26.037Z,96380.78
2022-10-17T07:27:06.237Z,96383.22
2022-10-17T07:29:35.880Z,96381.44
2022-10-17T07:32:11.979Z,96384.59
2022-10-17T07:34:41.346Z,96380.63
2022-10-17T07:37:12.367Z,96386.63
2022-10-17T07:39:44.834Z,96386.28
2022-10-17T07:42:16.154Z,96392.28
2022-10-17T07:44:47.272Z,96382.44
2022-10-17T07:47:16.752Z,96393.84
2022-10-17T07:49:47.089Z,96396.31
2022-10-17T07:52:18.787Z,96399.72
2022-10-17T07:54:48.480Z,96395.28
2022-10-17T07:57:19.245Z,96399.72
2022-10-17T07:59:50.714Z,96396.31
2022-10-17T08:02:25.476Z,96393.66
2022-10-17T08:04:55.371Z,96398.81
2022-10-17T08:07:28.504Z,96402.69
2022-10-17T08:10:03.192Z,96407.69
2022-10-17T08:12:34.468Z,96402.94
2022-10-17T08:15:04.290Z,96406.22
2022-10-17T08:17:36.004Z,96396.53
2022-10-17T08:20:07.768Z,96402.25
2022-10-17T08:22:37.288Z,96405.25
2022-10-17T08:25:09.190Z,96403.41
2022-10-17T08:27:39.968Z,96402.63
2022-10-17T08:30:11.602Z,96404.03
2022-10-17T08:32:41.299Z,96410.25
2022-10-17T08:35:11.450Z,96404.84
2022-10-17T08:37:40.816Z,96402.44
2022-10-17T08:40:22.225Z,96398.38
2022-10-17T08:43:21.320Z,96399.75
2022-10-17T08:45:56.976Z,96402.41
2022-10-17T08:48:30.445Z,96403.25
2022-10-17T08:51:07.304Z,96391.03
2022-10-17T08:53:42.841Z,96401.84
2022-10-17T08:56:25.095Z,96396.97
2022-10-17T08:59:16.254Z,96398.31
2022-10-17T09:01:53.233Z,96402.13
2022-10-17T09:05:09.946Z,96397.72
2022-10-17T09:07:49.537Z,96404.97
2022-10-17T09:10:32.159Z,96406.28
2022-10-17T09:13:20.625Z,96407.34
2022-10-17T09:16:13.418Z,96406.22
2022-10-17T09:18:47.452Z,96399.66
2022-10-17T09:21:26.363Z,96404.47
2022-10-17T09:24:09.093Z,96403.59
2022-10-17T09:26:41.792Z,96406.56
2022-10-17T09:29:23.510Z,96401.78
2022-10-17T09:32:04.238Z,96398.47
2022-10-17T09:34:34.305Z,96402.78
2022-10-17T09:37:07.456Z,96398.91
2022-10-17T09:39:37.129Z,96402.91
2022-10-17T09:42:06.648Z,96403.63
2022-10-17T09:44:42.344Z,96397.41
2022-10-17T09:47:31.181Z,96401.78
2022-10-17T09:50:00.583Z,96398.66
2022-10-17T09:52:36.709Z,96404.59
2022-10-17T09:55:18.330Z,96401.88
2022-10-17T09:57:58.828Z,96408.31
2022-10-17T10:00:31.411Z,96419.66
2022-10-17T10:03:17.796Z,96413.28
2022-10-17T10:06:03.449Z,96416.97
2022-10-17T10:08:36.557Z,96419.56
2022-10-17T10:11:13.350Z,96417.00
2022-10-17T10:13:45.125Z,96412.53
2022-10-17T10:16:23.096Z,96403.50
2022-10-17T10:18:54.199Z,96403.38
2022-10-17T10:21:26.984Z,96414.41
2022-10-17T10:24:13.319Z,96401.06
2022-10-17T10:26:47.496Z,96407.75
2022-10-17T10:29:30.738Z,96413.38
2022-10-17T10:32:11.662Z,96414.91
2022-10-17T10:34:53.910Z,96414.53
2022-10-17T10:37:26.917Z,96412.53
2022-10-17T10:39:59.838Z,96404.59
2022-10-17T10:43:24.386Z,96401.41
2022-10-17T10:45:54.409Z,96405.03
2022-10-17T10:48:26.852Z,96402.53
2022-10-17T10:51:01.709Z,96396.44
2022-10-17T10:53:48.444Z,96398.38
2022-10-17T10:56:23.069Z,96394.94
2022-10-17T10:59:01.017Z,96396.84
2022-10-17T11:01:43.445Z,96395.75
2022-10-17T11:04:32.437Z,96399.19
2022-10-17T11:07:11.365Z,96395.50
2022-10-17T11:09:55.108Z,96388.47
2022-10-17T11:12:29.208Z,96388.13
2022-10-17T11:15:09.144Z,96387.66
2022-10-17T11:17:46.901Z,96391.38
2022-10-17T11:20:29.922Z,96383.84
2022-10-17T11:23:19.888Z,96387.56
2022-10-17T11:25:53.397Z,96382.94
2022-10-17T11:28:26.153Z,96382.03
2022-10-17T11:31:05.770Z,96377.34
2022-10-17T11:33:47.610Z,96378.88
2022-10-17T11:36:23.294Z,96381.50
2022-10-17T11:39:01.185Z,96380.75
2022-10-17T11:41:41.309Z,96381.69
2022-10-17T11:44:24.074Z,96386.25
2022-10-17T11:47:08.552Z,96379.56
2022-10-17T11:49:45.186Z,96381.53
2022-10-17T11:52:55.540Z,96384.13
2022-10-17T11:55:30.557Z,96385.75
2022-10-17T11:58:31.302Z,96378.88
2022-10-17T12:01:16.648Z,96385.53
2022-10-17T12:07:06.890Z,96376.75
2022-10-17T12:09:46.030Z,96372.88
2022-10-17T12:12:28.641Z,96377.25
2022-10-17T12:15:29.577Z,96372.94
2022-10-17T12:18:02.824Z,96370.06
2022-10-17T12:20:38.390Z,96371.50
2022-10-17T12:23:27.212Z,96362.84
2022-10-17T12:26:03.356Z,96369.25
2022-10-17T12:28:43.899Z,96367.00
2022-10-17T12:31:32.500Z,96360.97
2022-10-17T12:34:05.353Z,96367.69
2022-10-17T12:36:43.758Z,96357.84
2022-10-17T12:39:50.290Z,96361.09
2022-10-17T12:42:35.299Z,96362.41
2022-10-17T12:45:47.799Z,96363.41
2022-10-17T12:49:00.567Z,96359.38
2022-10-17T12:51:38.159Z,96365.00
2022-10-17T12:54:13.247Z,96357.78
2022-10-17T12:56:47.116Z,96364.50
2022-10-17T12:59:23.157Z,96366.38
2022-10-17T13:01:58.971Z,96366.81
2022-10-17T13:04:30.098Z,96366.34
2022-10-17T13:07:01.230Z,96364.78
2022-10-17T13:09:32.904Z,96360.25
2022-10-17T13:12:07.596Z,96360.38
2022-10-17T13:14:40.532Z,96369.25
2022-10-17T13:17:24.842Z,96360.00
2022-10-17T13:19:55.024Z,96362.38
2022-10-17T13:22:27.394Z,96362.41
2022-10-17T13:25:09.582Z,96358.22
2022-10-17T13:27:38.985Z,96365.97
2022-10-17T13:30:29.408Z,96362.59
2022-10-17T13:33:03.672Z,96361.31
2022-10-17T13:35:58.994Z,96362.09
2022-10-17T13:38:28.606Z,96360.38
2022-10-17T13:41:10.744Z,96354.78
2022-10-17T13:43:45.991Z,96359.97
2022-10-17T13:46:37.327Z,96357.28
2022-10-17T13:49:22.194Z,96366.09
2022-10-17T13:51:55.449Z,96360.84
2022-10-17T13:54:36.399Z,96354.75
2022-10-17T13:57:07.801Z,96357.47
2022-10-17T13:59:40.863Z,96354.38
2022-10-17T14:02:16.886Z,96367.16
2022-10-17T14:05:18.783Z,96362.72
2022-10-17T14:08:09.274Z,96363.41
2022-10-17T14:10:33.778Z,96369.19
2022-10-17T14:13:05.261Z,96370.84
2022-10-17T14:15:36.891Z,96362.91
2022-10-17T14:18:08.889Z,96361.50
2022-10-17T14:21:28.811Z,96368.63
2022-10-17T14:23:39.139Z,96366.03
2022-10-17T14:26:13.682Z,96371.22
2022-10-17T14:28:47.977Z,96369.88
2022-10-17T14:31:29.957Z,96378.06
2022-10-17T14:34:00.916Z,96367.84
2022-10-17T14:36:41.979Z,96371.00
2022-10-17T14:39:21.045Z,96363.84
2022-10-17T14:41:51.119Z,96369.72
2022-10-17T14:44:24.573Z,96372.97
2022-10-17T14:47:05.930Z,96380.53
2022-10-17T14:49:42.552Z,96376.50
2022-10-17T14:52:35.488Z,96387.03
2022-10-17T14:55:24.284Z,96384.09
2022-10-17T14:57:53.547Z,96381.75
2022-10-17T15:00:24.479Z,96389.50
2022-10-17T15:02:56.222Z,96394.31
2022-10-17T15:05:25.926Z,96398.84
2022-10-17T15:07:56.896Z,96395.94
2022-10-17T15:10:34.332Z,96403.97
2022-10-17T15:13:26.530Z,96394.50
2022-10-17T15:15:54.117Z,96401.13
2022-10-17T15:18:23.520Z,96397.72
2022-10-17T15:21:04.512Z,96399.84
2022-10-17T15:23:43.282Z,96404.69
2022-10-17T15:26:16.402Z,96407.50
2022-10-17T15:28:47.464Z,96409.44
2022-10-17T15:31:20.584Z,96412.09
2022-10-17T15:33:50.917Z,96419.75
2022-10-17T15:36:25.117Z,96425.03
2022-10-17T15:38:59.828Z,96424.03
2022-10-17T15:41:32.760Z,96420.69
2022-10-17T15:44:02.195Z,96419.06
2022-10-17T15:46:35.512Z,96424.22
2022-10-17T15:49:08.621Z,96426.25
2022-10-17T15:51:38.158Z,96426.16
2022-10-17T15:54:08.852Z,96429.38
2022-10-17T15:56:41.194Z,96434.78
2022-10-17T15:59:15.055Z,96440.63
2022-10-17T16:01:44.255Z,96433.66
2022-10-17T16:04:15.538Z,96436.19
2022-10-17T16:06:44.789Z,96438.19
2022-10-17T16:09:15.300Z,96433.06
2022-10-17T16:11:45.536Z,96440.97
2022-10-17T16:14:18.061Z,96439.09
2022-10-17T16:16:47.298Z,96440.22
2022-10-17T16:19:16.902Z,96446.47
2022-10-17T16:21:46.043Z,96454.94
2022-10-17T16:24:17.697Z,96450.56
2022-10-17T16:26:46.806Z,96457.56
2022-10-17T16:29:16.002Z,96459.44
2022-10-17T16:31:46.659Z,96458.25
2022-10-17T16:34:16.716Z,96458.16
2022-10-17T16:36:45.815Z,96453.94
2022-10-17T16:39:16.421Z,96463.84
2022-10-17T16:41:45.604Z,96465.56
2022-10-17T16:44:15.708Z,96464.81
2022-10-17T16:46:44.967Z,96459.00
2022-10-17T16:49:16.009Z,96462.59
2022-10-17T16:51:45.270Z,96463.53
2022-10-17T16:54:15.784Z,96471.44
2022-10-17T16:56:44.959Z,96481.28
2022-10-17T16:59:14.077Z,96488.09
2022-10-17T17:01:43.316Z,96476.22
2022-10-17T17:04:12.616Z,96488.97
2022-10-17T17:06:41.929Z,96485.22
2022-10-17T17:09:11.426Z,96488.50
2022-10-17T17:11:42.001Z,96502.59
2022-10-17T17:14:12.701Z,96490.69
2022-10-17T17:16:43.489Z,96496.09
2022-10-17T17:19:16.792Z,96507.53
2022-10-17T17:21:50.169Z,96510.22
2022-10-17T17:24:21.069Z,96509.16
2022-10-17T17:26:54.378Z,96506.72
2022-10-17T17:29:24.828Z,96507.78
2022-10-17T17:31:54.158Z,96505.34
2022-10-17T17:34:23.389Z,96516.72
2022-10-17T17:36:52.474Z,96514.84
2022-10-17T17:39:21.789Z,96517.50
2022-10-17T17:41:52.262Z,96514.78
2022-10-17T17:44:21.908Z,96532.66
2022-10-17T17:46:51.225Z,96524.50
2022-10-17T17:49:20.392Z,96530.44
2022-10-17T17:51:49.539Z,96534.22
2022-10-17T17:54:18.836Z,96528.00
2022-10-17T17:56:48.038Z,96534.44
2022-10-17T17:59:18.500Z,96537.69
2022-10-17T18:01:47.887Z,96531.69
2022-10-17T18:04:17.270Z,96535.72
2022-10-17T18:06:46.388Z,96531.59
2022-10-17T18:09:15.475Z,96534.84
2022-10-17T18:11:44.577Z,96530.47
2022-10-17T18:14:14.127Z,96530.72
2022-10-17T18:16:44.577Z,96535.81
2022-10-17T18:19:13.806Z,96536.00
2022-10-17T18:21:44.193Z,96535.19
2022-10-17T18:24:13.345Z,96533.28
2022-10-17T18:26:42.490Z,96535.13
2022-10-17T18:29:12.727Z,96534.28
2022-10-17T18:31:41.852Z,96524.50
2022-10-17T18:34:12.357Z,96529.03
2022-10-17T18:36:41.444Z,96533.59
2022-10-17T18:39:10.869Z,96524.38
2022-10-17T18:41:40.216Z,96523.25
2022-10-17T18:44:12.315Z,96533.78
2022-10-17T18:46:41.767Z,96538.31
2022-10-17T18:49:15.142Z,96535.81
2022-10-17T18:51:44.429Z,96540.09
2022-10-17T18:54:17.001Z,96545.22
2022-10-17T18:56:46.106Z,96546.22
2022-10-17T18:59:18.205Z,96537.53
2022-10-17T19:01:48.384Z,96543.72
2022-10-17T19:04:19.333Z,96541.22
2022-10-17T19:06:48.835Z,96533.63
2022-10-17T19:09:18.424Z,96538.44
2022-10-17T19:11:48.194Z,96534.38
2022-10-17T19:14:17.626Z,96533.31
2022-10-17T19:17:38.218Z,96530.88
2022-10-17T19:20:11.262Z,96540.31
2022-10-17T19:22:40.537Z,96536.47
2022-10-17T19:25:11.101Z,96544.00
2022-10-17T19:27:40.780Z,96547.47
2022-10-17T19:30:12.515Z,96549.53
2022-10-17T19:32:42.309Z,96549.22
2022-10-17T19:35:13.372Z,96563.22
2022-10-17T19:37:42.732Z,96552.38
2022-10-17T19:40:14.151Z,96560.41
2022-10-17T19:42:43.519Z,96553.31
2022-10-17T19:45:12.816Z,96555.69
2022-10-17T19:47:42.259Z,96553.25
2022-10-17T19:50:12.871Z,96551.53
2022-10-17T19:52:42.160Z,96561.50
2022-10-17T19:55:11.581Z,96559.28
2022-10-17T19:57:40.966Z,96556.81
2022-10-17T20:00:12.181Z,96557.06
2022-10-17T20:02:41.669Z,96562.47
2022-10-17T20:05:18.542Z,96567.28
2022-10-17T20:07:48.101Z,96569.97
2022-10-17T20:10:18.460Z,96570.22
2022-10-17T20:12:47.592Z,96555.88
2022-10-17T20:15:17.105Z,96562.00
2022-10-17T20:17:46.524Z,96564.94
2022-10-17T20:20:17.834Z,96563.63
2022-10-17T20:22:47.408Z,96566.06
2022-10-17T20:25:16.996Z,96565.00
2022-10-17T20:27:46.351Z,96568.84
2022-10-17T20:30:16.482Z,96567.78
2022-10-17T20:32:45.697Z,96572.34
2022-10-17T20:35:16.503Z,96566.41
2022-10-17T20:37:45.764Z,96563.88
2022-10-17T20:40:35.101Z,96577.84
2022-10-17T20:43:05.444Z,96567.03
2022-10-17T20:45:50.635Z,96569.41
2022-10-17T20:48:20.552Z,96572.00
2022-10-17T20:50:51.855Z,96572.50
2022-10-17T20:53:36.599Z,96580.00
2022-10-17T20:56:11.489Z,96578.38
2022-10-17T20:58:40.889Z,96578.88
2022-10-17T21:01:12.056Z,96573.69
2022-10-17T21:03:45.587Z,96575.00
2022-10-17T21:06:19.578Z,96578.16
2022-10-17T21:08:49.780Z,96572.22
2022-10-17T21:11:24.568Z,96566.25
2022-10-17T21:13:58.257Z,96575.16
2022-10-17T21:16:29.694Z,96571.88
2022-10-17T21:18:59.416Z,96573.75
2022-10-17T21:21:33.900Z,96562.19
2022-10-17T21:24:07.701Z,96568.63
2022-10-17T21:26:38.753Z,96566.41
2022-10-17T21:29:08.832Z,96567.81
2022-10-17T21:31:39.994Z,96567.81
2022-10-17T21:34:12.273Z,96567.00
2022-10-17T21:36:43.653Z,96567.00
2022-10-17T21:39:14.264Z,96572.38
2022-10-17T21:41:45.210Z,96573.69
2022-10-17T21:44:17.876Z,96572.03
2022-10-17T21:46:48.045Z,96576.63
2022-10-17T21:49:20.895Z,96570.41
2022-10-17T21:51:53.491Z,96564.47
2022-10-17T21:54:24.385Z,96568.69
2022-10-17T21:56:54.166Z,96567.38
2022-10-17T21:59:23.545Z,96570.41
2022-10-17T22:01:53.111Z,96571.81
2022-10-17T22:04:22.576Z,96562.41
2022-10-17T22:06:53.312Z,96564.63
2022-10-17T22:09:25.933Z,96560.22
2022-10-17T22:11:58.020Z,96553.97
2022-10-17T22:14:28.762Z,96555.69
2022-10-17T22:16:58.137Z,96557.44
2022-10-17T22:19:28.744Z,96556.56
2022-10-17T22:21:59.452Z,96559.13
2022-10-17T22:24:28.811Z,96556.00
2022-10-17T22:26:58.176Z,96551.75
2022-10-17T22:29:27.782Z,96558.50
2022-10-17T22:31:57.193Z,96555.00
2022-10-17T22:34:26.753Z,96553.38
2022-10-17T22:36:56.084Z,96557.38
2022-10-17T22:39:26.768Z,96555.44
2022-10-17T22:41:56.128Z,96555.63
2022-10-17T22:44:26.178Z,96566.38
2022-10-17T22:46:55.549Z,96565.78
2022-10-17T22:49:24.889Z,96564.66
2022-10-17T22:51:54.341Z,96560.19
2022-10-17T22:54:23.715Z,96558.97
2022-10-17T22:56:54.435Z,96564.00
2022-10-17T22:59:24.129Z,96569.41
2022-10-17T23:01:53.520Z,96566.94
2022-10-17T23:04:23.056Z,96564.09
2022-10-17T23:06:52.453Z,96567.22
2022-10-17T23:09:21.860Z,96568.78
2022-10-17T23:11:51.227Z,96564.47
2022-10-17T23:14:22.020Z,96572.22
2022-10-17T23:16:51.552Z,96566.41
2022-10-17T23:19:20.889Z,96565.75
2022-10-17T23:21:50.343Z,96573.53
2022-10-17T23:24:19.732Z,96564.81
2022-10-17T23:26:49.080Z,96562.25
2022-10-17T23:29:18.841Z,96553.03
2022-10-17T23:31:49.792Z,96563.00
2022-10-17T23:34:19.145Z,96556.56
2022-10-17T23:36:48.598Z,96545.06
2022-10-17T23:39:18.049Z,96557.78
2022-10-17T23:41:47.445Z,96552.97
2022-10-17T23:44:16.957Z,96550.28
2022-10-17T23:46:46.420Z,96544.81
2022-10-17T23:49:17.271Z,96546.84
2022-10-17T23:51:46.435Z,96548.34
2022-10-17T23:54:16.087Z,96548.56
2022-10-17T23:56:45.381Z,96551.91
2022-10-17T23:59:14.706Z,96546.66
